createdAt,value
2018-12-31T00:02:06.170Z,102218.00
2018-12-31T00:04:36.692Z,102225.00
2018-12-31T00:07:08.334Z,102213.00
2018-12-31T00:09:39.168Z,102211.00
2018-12-31T00:12:14.853Z,102217.00
2018-12-31T00:14:47.572Z,102216.00
2018-12-31T00:17:17.894Z,102231.00
2018-12-31T00:19:48.955Z,102221.00
2018-12-31T00:22:19.287Z,102223.00
2018-12-31T00:24:54.121Z,102220.00
2018-12-31T00:27:24.530Z,102212.00
2018-12-31T00:29:54.962Z,102214.00
2018-12-31T00:32:25.847Z,102220.00
2018-12-31T00:34:59.252Z,102220.00
2018-12-31T00:37:32.816Z,102219.00
2018-12-31T00:40:03.082Z,102216.00
2018-12-31T00:42:33.594Z,102219.00
2018-12-31T00:45:04.937Z,102209.00
2018-12-31T00:47:35.280Z,102200.00
2018-12-31T00:50:05.714Z,102209.00
2018-12-31T00:52:36.108Z,102207.00
2018-12-31T00:55:09.654Z,102211.00
2018-12-31T00:57:40.053Z,102207.00
2018-12-31T01:00:10.498Z,102208.00
2018-12-31T01:02:40.850Z,102206.00
2018-12-31T01:05:11.615Z,102220.00
2018-12-31T01:07:42.214Z,102216.00
2018-12-31T01:10:14.742Z,102221.00
2018-12-31T01:12:45.185Z,102224.00
2018-12-31T01:15:15.609Z,102220.00
2018-12-31T01:17:46.358Z,102213.00
2018-12-31T01:20:17.105Z,102225.00
2018-12-31T01:22:47.398Z,102226.00
2018-12-31T01:25:17.760Z,102222.00
2018-12-31T01:27:48.009Z,102232.00
2018-12-31T01:30:18.474Z,102231.00
2018-12-31T01:32:48.879Z,102224.00
2018-12-31T01:35:25.141Z,102230.00
2018-12-31T01:37:55.480Z,102231.00
2018-12-31T01:40:28.443Z,102244.00
2018-12-31T01:42:58.789Z,102238.00
2018-12-31T01:45:29.052Z,102246.00
2018-12-31T01:47:59.409Z,102247.00
2018-12-31T01:50:29.751Z,102240.00
2018-12-31T01:53:00.184Z,102243.00
2018-12-31T01:55:30.528Z,102241.00
2018-12-31T01:58:00.765Z,102245.00
2018-12-31T02:00:31.746Z,102244.00
2018-12-31T02:03:02.239Z,102256.00
2018-12-31T02:05:32.775Z,102263.00
2018-12-31T02:08:03.075Z,102250.00
2018-12-31T02:10:33.477Z,102263.00
2018-12-31T02:13:03.666Z,102256.00
2018-12-31T02:15:33.921Z,102248.00
2018-12-31T02:18:04.276Z,102241.00
2018-12-31T02:20:34.621Z,102241.00
2018-12-31T02:23:04.864Z,102244.00
2018-12-31T02:25:35.186Z,102241.00
2018-12-31T02:28:05.481Z,102238.00
2018-12-31T02:30:35.795Z,102241.00
2018-12-31T02:33:06.123Z,102239.00
2018-12-31T02:35:36.351Z,102235.00
2018-12-31T02:38:06.640Z,102230.00
2018-12-31T02:40:36.831Z,102234.00
2018-12-31T02:43:07.075Z,102233.00
2018-12-31T02:45:37.347Z,102231.00
2018-12-31T02:48:07.543Z,102229.00
2018-12-31T02:50:38.553Z,102213.00
2018-12-31T02:53:08.800Z,102216.00
2018-12-31T02:55:39.068Z,102217.00
2018-12-31T02:58:09.259Z,102210.00
2018-12-31T03:00:39.804Z,102217.00
2018-12-31T03:03:10.087Z,102223.00
2018-12-31T03:05:43.251Z,102216.00
2018-12-31T03:08:15.269Z,102201.00
2018-12-31T03:10:45.470Z,102203.00
2018-12-31T03:13:15.787Z,102201.00
2018-12-31T03:15:46.490Z,102196.00
2018-12-31T03:18:16.671Z,102183.00
2018-12-31T03:20:49.043Z,102205.00
2018-12-31T03:23:19.357Z,102205.00
2018-12-31T03:25:49.588Z,102206.00
2018-12-31T03:28:19.846Z,102202.00
2018-12-31T03:30:50.031Z,102206.00
2018-12-31T03:33:20.319Z,102204.00
2018-12-31T03:35:50.600Z,102194.00
2018-12-31T03:38:20.803Z,102194.00
2018-12-31T03:40:51.152Z,102201.00
2018-12-31T03:43:21.327Z,102189.00
2018-12-31T03:45:51.562Z,102192.00
2018-12-31T03:48:21.822Z,102196.00
2018-12-31T03:50:51.974Z,102201.00
2018-12-31T03:53:22.288Z,102203.00
2018-12-31T03:55:52.579Z,102211.00
2018-12-31T03:58:22.790Z,102201.00
2018-12-31T04:00:53.060Z,102203.00
2018-12-31T04:03:23.354Z,102209.00
2018-12-31T04:05:53.709Z,102197.00
2018-12-31T04:08:24.013Z,102208.00
2018-12-31T04:10:54.174Z,102216.00
2018-12-31T04:13:24.363Z,102212.00
2018-12-31T04:15:54.534Z,102208.00
2018-12-31T04:18:24.772Z,102208.00
2018-12-31T04:20:55.034Z,102210.00
2018-12-31T04:23:26.309Z,102217.00
2018-12-31T04:25:56.587Z,102216.00
2018-12-31T04:28:26.814Z,102226.00
2018-12-31T04:30:57.206Z,102222.00
2018-12-31T04:33:27.410Z,102222.00
2018-12-31T04:35:57.660Z,102223.00
2018-12-31T04:38:28.031Z,102226.00
2018-12-31T04:40:58.225Z,102214.00
2018-12-31T04:43:28.517Z,102218.00
2018-12-31T04:45:58.800Z,102215.00
2018-12-31T04:48:29.125Z,102219.00
2018-12-31T04:50:59.467Z,102224.00
2018-12-31T04:53:29.657Z,102229.00
2018-12-31T04:56:00.054Z,102237.00
2018-12-31T04:58:30.343Z,102220.00
2018-12-31T05:01:00.596Z,102220.00
2018-12-31T05:03:30.895Z,102224.00
2018-12-31T05:06:01.292Z,102219.00
2018-12-31T05:08:31.490Z,102221.00
2018-12-31T05:11:01.715Z,102224.00
2018-12-31T05:13:31.998Z,102214.00
2018-12-31T05:16:02.298Z,102217.00
2018-12-31T05:18:32.603Z,102218.00
2018-12-31T05:21:02.906Z,102227.00
2018-12-31T05:23:33.266Z,102240.00
2018-12-31T05:26:03.625Z,102237.00
2018-12-31T05:28:33.885Z,102240.00
2018-12-31T05:31:04.153Z,102238.00
2018-12-31T05:33:34.435Z,102236.00
2018-12-31T05:36:04.686Z,102245.00
2018-12-31T05:38:34.891Z,102237.00
2018-12-31T05:41:05.259Z,102247.00
2018-12-31T05:43:35.537Z,102232.00
2018-12-31T05:46:05.833Z,102247.00
2018-12-31T05:48:36.096Z,102253.00
2018-12-31T05:51:06.442Z,102252.00
2018-12-31T05:53:36.679Z,102259.00
2018-12-31T05:56:07.072Z,102264.00
2018-12-31T05:58:37.295Z,102265.00
2018-12-31T06:01:07.804Z,102266.00
2018-12-31T06:03:38.029Z,102266.00
2018-12-31T06:06:08.394Z,102271.00
2018-12-31T06:08:38.842Z,102253.00
2018-12-31T06:11:09.013Z,102263.00
2018-12-31T06:13:39.304Z,102261.00
2018-12-31T06:16:09.549Z,102258.00
2018-12-31T06:18:39.880Z,102266.00
2018-12-31T06:21:10.143Z,102264.00
2018-12-31T06:23:40.416Z,102266.00
2018-12-31T06:26:10.677Z,102268.00
2018-12-31T06:28:41.081Z,102277.00
2018-12-31T06:31:11.280Z,102279.00
2018-12-31T06:33:41.522Z,102274.00
2018-12-31T06:36:11.853Z,102274.00
2018-12-31T06:38:42.201Z,102275.00
2018-12-31T06:41:12.450Z,102276.00
2018-12-31T06:43:42.780Z,102276.00
2018-12-31T06:46:13.066Z,102274.00
2018-12-31T06:48:43.310Z,102255.00
2018-12-31T06:51:13.581Z,102263.00
2018-12-31T06:53:43.782Z,102276.00
2018-12-31T06:56:13.994Z,102276.00
2018-12-31T06:58:44.265Z,102282.00
2018-12-31T07:01:14.478Z,102288.00
2018-12-31T07:03:44.605Z,102287.00
2018-12-31T07:06:14.752Z,102286.00
2018-12-31T07:08:44.903Z,102300.00
2018-12-31T07:11:15.087Z,102284.00
2018-12-31T07:13:45.247Z,102287.00
2018-12-31T07:16:15.489Z,102291.00
2018-12-31T07:18:45.817Z,102294.00
2018-12-31T07:21:16.013Z,102288.00
2018-12-31T07:23:46.243Z,102298.00
2018-12-31T07:26:16.412Z,102300.00
2018-12-31T07:28:46.687Z,102301.00
2018-12-31T07:31:17.077Z,102305.00
2018-12-31T07:33:47.430Z,102303.00
2018-12-31T07:36:18.204Z,102302.00
2018-12-31T07:38:50.517Z,102310.00
2018-12-31T07:41:21.119Z,102314.00
2018-12-31T07:43:51.669Z,102318.00
2018-12-31T07:46:22.143Z,102316.00
2018-12-31T07:48:52.568Z,102331.00
2018-12-31T07:51:22.984Z,102323.00
2018-12-31T07:53:53.688Z,102337.00
2018-12-31T07:56:24.437Z,102333.00
2018-12-31T07:58:54.793Z,102330.00
2018-12-31T08:01:25.323Z,102332.00
2018-12-31T08:03:56.112Z,102325.00
2018-12-31T08:06:26.785Z,102339.00
2018-12-31T08:08:57.245Z,102335.00
2018-12-31T08:11:27.941Z,102334.00
2018-12-31T08:13:58.689Z,102331.00
2018-12-31T08:16:29.507Z,102334.00
2018-12-31T08:19:00.078Z,102342.00
2018-12-31T08:21:30.977Z,102347.00
2018-12-31T08:24:01.603Z,102353.00
2018-12-31T08:26:32.272Z,102355.00
2018-12-31T08:29:03.002Z,102350.00
2018-12-31T08:31:33.452Z,102360.00
2018-12-31T08:34:03.915Z,102347.00
2018-12-31T08:36:34.358Z,102357.00
2018-12-31T08:39:07.050Z,102362.00
2018-12-31T08:41:37.431Z,102343.00
2018-12-31T08:44:08.068Z,102348.00
2018-12-31T08:46:38.656Z,102350.00
2018-12-31T08:49:09.277Z,102349.00
2018-12-31T08:51:39.805Z,102349.00
2018-12-31T08:54:10.330Z,102353.00
2018-12-31T08:56:41.082Z,102352.00
2018-12-31T08:59:11.492Z,102358.00
2018-12-31T09:01:41.906Z,102355.00
2018-12-31T09:04:12.381Z,102360.00
2018-12-31T09:06:43.283Z,102351.00
2018-12-31T09:09:13.867Z,102349.00
2018-12-31T09:11:44.334Z,102356.00
2018-12-31T09:14:14.823Z,102352.00
2018-12-31T09:16:45.172Z,102354.00
2018-12-31T09:19:15.704Z,102347.00
2018-12-31T09:21:46.338Z,102339.00
2018-12-31T09:24:17.173Z,102348.00
2018-12-31T09:26:47.689Z,102337.00
2018-12-31T09:29:18.391Z,102350.00
2018-12-31T09:31:49.018Z,102338.00
2018-12-31T09:34:19.672Z,102335.00
2018-12-31T09:36:50.261Z,102341.00
2018-12-31T09:39:21.098Z,102341.00
2018-12-31T09:41:53.385Z,102333.00
2018-12-31T09:44:24.190Z,102334.00
2018-12-31T09:46:54.784Z,102334.00
2018-12-31T09:49:25.487Z,102338.00
2018-12-31T09:51:56.179Z,102332.00
2018-12-31T09:54:26.817Z,102339.00
2018-12-31T09:56:57.390Z,102327.00
2018-12-31T09:59:27.810Z,102328.00
2018-12-31T10:01:58.486Z,102335.00
2018-12-31T10:04:28.976Z,102332.00
2018-12-31T10:06:59.798Z,102338.00
2018-12-31T10:09:30.238Z,102339.00
2018-12-31T10:12:01.108Z,102349.00
2018-12-31T10:14:31.876Z,102346.00
2018-12-31T10:17:02.330Z,102343.00
2018-12-31T10:19:32.949Z,102341.00
2018-12-31T10:22:03.891Z,102348.00
2018-12-31T10:24:34.326Z,102345.00
2018-12-31T10:27:04.798Z,102333.00
2018-12-31T10:29:36.225Z,102328.00
2018-12-31T10:32:07.234Z,102332.00
2018-12-31T10:34:37.788Z,102332.00
2018-12-31T10:37:08.588Z,102328.00
2018-12-31T10:39:39.201Z,102323.00
2018-12-31T10:42:09.856Z,102318.00
2018-12-31T10:44:40.447Z,102319.00
2018-12-31T10:47:11.138Z,102322.00
2018-12-31T10:49:41.672Z,102317.00
2018-12-31T10:52:12.088Z,102308.00
2018-12-31T10:54:43.704Z,102295.00
2018-12-31T10:57:14.206Z,102294.00
2018-12-31T10:59:44.764Z,102294.00
2018-12-31T11:02:15.342Z,102297.00
2018-12-31T11:04:45.748Z,102294.00
2018-12-31T11:07:16.452Z,102294.00
2018-12-31T11:09:56.312Z,102298.00
2018-12-31T11:12:28.898Z,102293.00
2018-12-31T11:14:59.457Z,102288.00
2018-12-31T11:17:29.897Z,102290.00
2018-12-31T11:20:00.475Z,102277.00
2018-12-31T11:22:31.290Z,102280.00
2018-12-31T11:25:01.957Z,102287.00
2018-12-31T11:27:32.412Z,102276.00
2018-12-31T11:30:02.982Z,102278.00
2018-12-31T11:32:33.540Z,102279.00
2018-12-31T11:35:04.144Z,102278.00
2018-12-31T11:37:35.030Z,102269.00
2018-12-31T11:40:06.587Z,102270.00
2018-12-31T11:42:37.214Z,102268.00
2018-12-31T11:45:08.650Z,102276.00
2018-12-31T11:47:39.205Z,102268.00
2018-12-31T11:50:09.849Z,102281.00
2018-12-31T11:52:40.800Z,102282.00
2018-12-31T11:55:11.404Z,102275.00
2018-12-31T11:57:42.173Z,102289.00
2018-12-31T12:00:12.765Z,102282.00
2018-12-31T12:02:43.612Z,102283.00
2018-12-31T12:05:14.077Z,102278.00
2018-12-31T12:07:44.622Z,102279.00
2018-12-31T12:10:14.969Z,102287.00
2018-12-31T12:12:45.654Z,102276.00
2018-12-31T12:15:16.286Z,102259.00
2018-12-31T12:17:46.842Z,102278.00
2018-12-31T12:20:17.803Z,102282.00
2018-12-31T12:22:48.699Z,102263.00
2018-12-31T12:25:19.301Z,102268.00
2018-12-31T12:27:49.849Z,102270.00
2018-12-31T12:30:20.473Z,102264.00
2018-12-31T12:32:51.101Z,102261.00
2018-12-31T12:35:21.912Z,102252.00
2018-12-31T12:37:52.277Z,102255.00
2018-12-31T12:40:22.937Z,102245.00
2018-12-31T12:42:54.263Z,102260.00
2018-12-31T12:45:24.752Z,102250.00
2018-12-31T12:47:55.313Z,102261.00
2018-12-31T12:50:25.803Z,102271.00
2018-12-31T12:52:56.397Z,102256.00
2018-12-31T12:55:27.071Z,102272.00
2018-12-31T12:57:57.918Z,102269.00
2018-12-31T13:00:28.659Z,102268.00
2018-12-31T13:03:06.697Z,102266.00
2018-12-31T13:05:37.411Z,102262.00
2018-12-31T13:08:08.065Z,102268.00
2018-12-31T13:10:38.622Z,102275.00
2018-12-31T13:13:09.116Z,102265.00
2018-12-31T13:15:39.685Z,102277.00
2018-12-31T13:18:10.313Z,102261.00
2018-12-31T13:20:40.806Z,102264.00
2018-12-31T13:23:11.437Z,102264.00
2018-12-31T13:25:42.863Z,102270.00
2018-12-31T13:28:13.255Z,102275.00
2018-12-31T13:30:43.801Z,102274.00
2018-12-31T13:33:14.200Z,102280.00
2018-12-31T13:35:44.682Z,102281.00
2018-12-31T13:38:15.242Z,102282.00
2018-12-31T13:40:48.461Z,102289.00
2018-12-31T13:43:18.803Z,102285.00
2018-12-31T13:45:49.388Z,102274.00
2018-12-31T13:48:20.119Z,102282.00
2018-12-31T13:50:50.816Z,102270.00
2018-12-31T13:53:21.217Z,102278.00
2018-12-31T13:55:51.915Z,102265.00
2018-12-31T13:58:22.937Z,102271.00
2018-12-31T14:00:53.519Z,102269.00
2018-12-31T14:03:24.180Z,102263.00
2018-12-31T14:05:54.717Z,102270.00
2018-12-31T14:08:25.261Z,102269.00
2018-12-31T14:10:55.829Z,102263.00
2018-12-31T14:13:26.434Z,102279.00
2018-12-31T14:15:56.896Z,102274.00
2018-12-31T14:18:27.299Z,102254.00
2018-12-31T14:20:57.980Z,102270.00
2018-12-31T14:23:28.388Z,102276.00
2018-12-31T14:25:58.937Z,102276.00
2018-12-31T14:28:29.373Z,102280.00
2018-12-31T14:30:59.713Z,102270.00
2018-12-31T14:33:30.312Z,102271.00
2018-12-31T14:36:01.769Z,102263.00
2018-12-31T14:38:32.168Z,102268.00
2018-12-31T14:41:02.512Z,102274.00
2018-12-31T14:43:34.026Z,102273.00
2018-12-31T14:46:04.405Z,102267.00
2018-12-31T14:48:34.700Z,102272.00
2018-12-31T14:51:05.027Z,102261.00
2018-12-31T14:53:35.300Z,102271.00
2018-12-31T14:56:05.645Z,102271.00
2018-12-31T14:58:35.966Z,102259.00
2018-12-31T15:01:06.254Z,102263.00
2018-12-31T15:03:36.422Z,102268.00
2018-12-31T15:06:07.130Z,102266.00
2018-12-31T15:08:37.405Z,102269.00
2018-12-31T15:11:07.674Z,102263.00
2018-12-31T15:13:37.996Z,102259.00
2018-12-31T15:16:08.260Z,102262.00
2018-12-31T15:18:38.480Z,102267.00
2018-12-31T15:21:08.746Z,102266.00
2018-12-31T15:23:38.954Z,102260.00
2018-12-31T15:26:09.135Z,102262.00
2018-12-31T15:28:39.688Z,102268.00
2018-12-31T15:31:09.884Z,102275.00
2018-12-31T15:33:40.213Z,102261.00
2018-12-31T15:36:10.457Z,102266.00
2018-12-31T15:38:40.742Z,102266.00
2018-12-31T15:41:11.033Z,102262.00
2018-12-31T15:43:41.270Z,102268.00
2018-12-31T15:46:11.464Z,102272.00
2018-12-31T15:48:41.816Z,102269.00
2018-12-31T15:51:12.223Z,102278.00
2018-12-31T15:53:43.199Z,102277.00
2018-12-31T15:56:13.706Z,102280.00
2018-12-31T15:58:44.051Z,102279.00
2018-12-31T16:01:14.404Z,102279.00
2018-12-31T16:03:45.355Z,102277.00
2018-12-31T16:06:15.800Z,102279.00
2018-12-31T16:08:46.228Z,102266.00
2018-12-31T16:11:16.514Z,102266.00
2018-12-31T16:13:46.803Z,102265.00
2018-12-31T16:16:17.124Z,102267.00
2018-12-31T16:18:47.453Z,102258.00
2018-12-31T16:21:17.745Z,102261.00
2018-12-31T16:23:48.094Z,102263.00
2018-12-31T16:26:18.816Z,102271.00
2018-12-31T16:28:49.156Z,102260.00
2018-12-31T16:31:19.464Z,102274.00
2018-12-31T16:33:50.349Z,102247.00
2018-12-31T16:36:20.646Z,102255.00
2018-12-31T16:38:50.952Z,102249.00
2018-12-31T16:41:21.294Z,102258.00
2018-12-31T16:43:51.614Z,102245.00
2018-12-31T16:46:21.940Z,102243.00
2018-12-31T16:48:52.240Z,102244.00
2018-12-31T16:51:22.613Z,102248.00
2018-12-31T16:53:52.944Z,102249.00
2018-12-31T16:56:23.273Z,102248.00
2018-12-31T16:58:53.511Z,102247.00
2018-12-31T17:01:23.807Z,102245.00
2018-12-31T17:03:54.110Z,102244.00
2018-12-31T17:06:25.592Z,102238.00
2018-12-31T17:08:55.976Z,102249.00
2018-12-31T17:11:26.360Z,102238.00
2018-12-31T17:13:56.648Z,102233.00
2018-12-31T17:16:26.869Z,102235.00
2018-12-31T17:18:57.171Z,102238.00
2018-12-31T17:21:27.375Z,102228.00
2018-12-31T17:23:57.967Z,102231.00
2018-12-31T17:26:28.355Z,102239.00
2018-12-31T17:28:58.614Z,102226.00
2018-12-31T17:31:29.046Z,102223.00
2018-12-31T17:33:59.291Z,102222.00
2018-12-31T17:36:29.735Z,102218.00
2018-12-31T17:38:59.982Z,102222.00
2018-12-31T17:41:30.336Z,102207.00
2018-12-31T17:44:00.605Z,102212.00
2018-12-31T17:46:30.906Z,102208.00
2018-12-31T17:49:01.256Z,102206.00
2018-12-31T17:51:31.536Z,102209.00
2018-12-31T17:54:01.861Z,102223.00
2018-12-31T17:56:32.160Z,102222.00
2018-12-31T17:59:02.817Z,102217.00
2018-12-31T18:01:33.010Z,102215.00
2018-12-31T18:04:03.327Z,102218.00
2018-12-31T18:06:33.822Z,102226.00
2018-12-31T18:09:10.926Z,102227.00
2018-12-31T18:11:43.662Z,102223.00
2018-12-31T18:14:13.951Z,102223.00
2018-12-31T18:16:44.267Z,102219.00
2018-12-31T18:19:14.581Z,102231.00
2018-12-31T18:21:44.826Z,102234.00
2018-12-31T18:24:15.275Z,102235.00
2018-12-31T18:26:45.677Z,102231.00
2018-12-31T18:29:16.000Z,102236.00
2018-12-31T18:31:51.962Z,102235.00
2018-12-31T18:34:22.878Z,102233.00
2018-12-31T18:36:53.511Z,102240.00
2018-12-31T18:39:23.803Z,102247.00
2018-12-31T18:41:54.150Z,102241.00
2018-12-31T18:44:24.431Z,102232.00
2018-12-31T18:46:54.769Z,102230.00
2018-12-31T18:49:25.142Z,102233.00
2018-12-31T18:51:55.513Z,102239.00
2018-12-31T18:54:26.544Z,102242.00
2018-12-31T18:56:56.847Z,102223.00
2018-12-31T18:59:27.068Z,102230.00
2018-12-31T19:01:57.331Z,102243.00
2018-12-31T19:04:29.538Z,102235.00
2018-12-31T19:06:59.935Z,102231.00
2018-12-31T19:09:30.347Z,102239.00
2018-12-31T19:12:00.620Z,102237.00
2018-12-31T19:14:31.076Z,102229.00
2018-12-31T19:17:03.085Z,102232.00
2018-12-31T19:19:33.427Z,102230.00
2018-12-31T19:22:03.761Z,102227.00
2018-12-31T19:24:34.037Z,102233.00
2018-12-31T19:27:04.372Z,102229.00
2018-12-31T19:29:35.113Z,102229.00
2018-12-31T19:32:05.386Z,102233.00
2018-12-31T19:34:35.683Z,102229.00
2018-12-31T19:37:06.017Z,102219.00
2018-12-31T19:39:36.412Z,102227.00
2018-12-31T19:42:06.676Z,102219.00
2018-12-31T19:44:36.991Z,102231.00
2018-12-31T19:47:07.272Z,102218.00
2018-12-31T19:49:37.561Z,102212.00
2018-12-31T19:52:07.851Z,102210.00
2018-12-31T19:54:38.215Z,102212.00
2018-12-31T19:57:08.519Z,102218.00
2018-12-31T19:59:38.851Z,102219.00
2018-12-31T20:02:09.151Z,102217.00
2018-12-31T20:04:39.744Z,102221.00
2018-12-31T20:07:10.089Z,102218.00
2018-12-31T20:09:40.375Z,102219.00
2018-12-31T20:12:10.675Z,102211.00
2018-12-31T20:14:41.142Z,102217.00
2018-12-31T20:17:11.477Z,102209.00
2018-12-31T20:19:41.805Z,102210.00
2018-12-31T20:22:12.094Z,102205.00
2018-12-31T20:24:42.577Z,102209.00
2018-12-31T20:27:12.921Z,102202.00
2018-12-31T20:29:43.299Z,102205.00
2018-12-31T20:32:13.551Z,102206.00
2018-12-31T20:34:43.912Z,102206.00
2018-12-31T20:37:14.308Z,102209.00
2018-12-31T20:39:44.700Z,102199.00
2018-12-31T20:42:14.995Z,102199.00
2018-12-31T20:44:45.329Z,102194.00
2018-12-31T20:47:15.711Z,102193.00
2018-12-31T20:49:46.053Z,102188.00
2018-12-31T20:52:16.351Z,102184.00
2018-12-31T20:54:46.649Z,102186.00
2018-12-31T20:57:16.941Z,102174.00
2018-12-31T20:59:47.277Z,102187.00
2018-12-31T21:02:17.569Z,102177.00
2018-12-31T21:04:47.950Z,102184.00
2018-12-31T21:07:18.687Z,102182.00
2018-12-31T21:09:48.971Z,102180.00
2018-12-31T21:12:19.284Z,102186.00
2018-12-31T21:14:49.639Z,102189.00
2018-12-31T21:17:20.485Z,102186.00
2018-12-31T21:19:50.824Z,102177.00
2018-12-31T21:22:21.083Z,102189.00
2018-12-31T21:24:51.409Z,102169.00
2018-12-31T21:27:21.805Z,102170.00
2018-12-31T21:29:52.133Z,102167.00
2018-12-31T21:32:22.517Z,102163.00
2018-12-31T21:34:53.661Z,102163.00
2018-12-31T21:37:26.865Z,102152.00
2018-12-31T21:39:57.151Z,102157.00
2018-12-31T21:42:27.670Z,102149.00
2018-12-31T21:44:58.055Z,102166.00
2018-12-31T21:47:30.883Z,102153.00
2018-12-31T21:50:01.203Z,102131.00
2018-12-31T21:52:31.689Z,102143.00
2018-12-31T21:55:01.987Z,102142.00
2018-12-31T21:57:32.345Z,102130.00
2018-12-31T22:00:02.611Z,102136.00
2018-12-31T22:02:32.937Z,102139.00
2018-12-31T22:05:03.266Z,102115.00
2018-12-31T22:07:33.607Z,102130.00
2018-12-31T22:10:04.158Z,102125.00
2018-12-31T22:12:34.443Z,102118.00
2018-12-31T22:15:04.890Z,102108.00
2018-12-31T22:17:35.391Z,102100.00
2018-12-31T22:20:06.420Z,102100.00
2018-12-31T22:22:36.779Z,102087.00
2018-12-31T22:25:07.744Z,102089.00
2018-12-31T22:27:38.199Z,102084.00
2018-12-31T22:30:09.911Z,102076.00
2018-12-31T22:32:40.208Z,102071.00
2018-12-31T22:35:10.535Z,102067.00
2018-12-31T22:37:40.835Z,102065.00
2018-12-31T22:40:11.077Z,102060.00
2018-12-31T22:42:41.499Z,102070.00
2018-12-31T22:45:11.861Z,102065.00
2018-12-31T22:47:42.205Z,102055.00
2018-12-31T22:50:13.139Z,102060.00
2018-12-31T22:52:43.439Z,102056.00
2018-12-31T22:55:13.759Z,102054.00
2018-12-31T22:57:44.175Z,102050.00
2018-12-31T23:00:14.759Z,102057.00
2018-12-31T23:02:45.159Z,102038.00
2018-12-31T23:05:16.135Z,102048.00
2018-12-31T23:07:46.427Z,102043.00
2018-12-31T23:10:16.731Z,102038.00
2018-12-31T23:12:47.384Z,102037.00
2018-12-31T23:15:21.449Z,102043.00
2018-12-31T23:17:52.317Z,102033.00
2018-12-31T23:20:23.596Z,102028.00
2018-12-31T23:22:54.093Z,102033.00
2018-12-31T23:25:24.707Z,102013.00
2018-12-31T23:27:54.978Z,102014.00
2018-12-31T23:30:25.393Z,102018.00
2018-12-31T23:32:55.698Z,102014.00
2018-12-31T23:35:26.011Z,102020.00
2018-12-31T23:37:56.347Z,102001.00
2018-12-31T23:40:26.734Z,102006.00
2018-12-31T23:42:57.027Z,101976.00
2018-12-31T23:45:27.338Z,101983.00
2018-12-31T23:47:58.037Z,101978.00
2018-12-31T23:50:28.333Z,101963.00
2018-12-31T23:52:58.606Z,101969.00
2018-12-31T23:55:28.901Z,101988.00
2018-12-31T23:57:59.198Z,101972.00
